sensor_id;sensor_type;location;lat;lon;timestamp;temperature;humidity
19044;DHT22;9654;52.302;8.120;2023-02-23T00:01:34;8.00;99.90
19044;DHT22;9654;52.302;8.120;2023-02-23T00:04:01;8.00;99.90
19044;DHT22;9654;52.302;8.120;2023-02-23T00:06:30;8.00;99.90
19044;DHT22;9654;52.302;8.120;2023-02-23T00:08:58;8.00;99.90
19044;DHT22;9654;52.302;8.120;2023-02-23T00:11:26;8.10;99.90
19044;DHT22;9654;52.302;8.120;2023-02-23T00:13:53;8.10;99.90
19044;DHT22;9654;52.302;8.120;2023-02-23T00:16:24;8.10;99.90
19044;DHT22;9654;52.302;8.120;2023-02-23T00:18:53;8.10;99.90
19044;DHT22;9654;52.302;8.120;2023-02-23T00:21:22;8.10;99.90
19044;DHT22;9654;52.302;8.120;2023-02-23T00:23:51;8.20;99.90
19044;DHT22;9654;52.302;8.120;2023-02-23T00:26:18;8.20;99.90
19044;DHT22;9654;52.302;8.120;2023-02-23T00:28:47;8.20;99.90
19044;DHT22;9654;52.302;8.120;2023-02-23T00:31:15;8.20;99.90
19044;DHT22;9654;52.302;8.120;2023-02-23T00:33:44;8.20;99.90
19044;DHT22;9654;52.302;8.120;2023-02-23T00:36:12;8.20;99.90
19044;DHT22;9654;52.302;8.120;2023-02-23T00:38:40;8.20;99.90
19044;DHT22;9654;52.302;8.120;2023-02-23T00:41:08;8.20;99.90
19044;DHT22;9654;52.302;8.120;2023-02-23T00:43:37;8.30;99.90
19044;DHT22;9654;52.302;8.120;2023-02-23T00:46:04;8.30;99.90
19044;DHT22;9654;52.302;8.120;2023-02-23T00:48:32;8.30;99.90
19044;DHT22;9654;52.302;8.120;2023-02-23T00:51:01;8.30;99.90
19044;DHT22;9654;52.302;8.120;2023-02-23T00:53:29;8.30;99.90
19044;DHT22;9654;52.302;8.120;2023-02-23T00:55:56;8.20;99.90
19044;DHT22;9654;52.302;8.120;2023-02-23T00:58:23;8.30;99.90
19044;DHT22;9654;52.302;8.120;2023-02-23T01:00:51;8.20;99.90
19044;DHT22;9654;52.302;8.120;2023-02-23T01:03:18;8.20;99.90
19044;DHT22;9654;52.302;8.120;2023-02-23T01:05:45;8.20;99.90
19044;DHT22;9654;52.302;8.120;2023-02-23T01:08:16;8.20;99.90
19044;DHT22;9654;52.302;8.120;2023-02-23T01:10:43;8.20;99.90
19044;DHT22;9654;52.302;8.120;2023-02-23T01:13:17;8.20;99.90
19044;DHT22;9654;52.302;8.120;2023-02-23T01:15:44;8.20;99.90
19044;DHT22;9654;52.302;8.120;2023-02-23T01:18:12;8.20;99.90
19044;DHT22;9654;52.302;8.120;2023-02-23T01:20:39;8.20;99.90
19044;DHT22;9654;52.302;8.120;2023-02-23T01:23:07;8.20;99.90
19044;DHT22;9654;52.302;8.120;2023-02-23T01:25:35;8.20;99.90
19044;DHT22;9654;52.302;8.120;2023-02-23T01:28:03;8.20;99.90
19044;DHT22;9654;52.302;8.120;2023-02-23T01:30:30;8.10;99.90
19044;DHT22;9654;52.302;8.120;2023-02-23T01:32:57;8.10;99.90
19044;DHT22;9654;52.302;8.120;2023-02-23T01:35:25;8.10;99.90
19044;DHT22;9654;52.302;8.120;2023-02-23T01:37:52;8.10;99.90
19044;DHT22;9654;52.302;8.120;2023-02-23T01:40:20;8.10;99.90
19044;DHT22;9654;52.302;8.120;2023-02-23T01:42:57;8.10;99.90
19044;DHT22;9654;52.302;8.120;2023-02-23T01:45:28;8.10;99.90
19044;DHT22;9654;52.302;8.120;2023-02-23T01:47:57;8.10;99.90
19044;DHT22;9654;52.302;8.120;2023-02-23T01:50:26;8.10;99.90
19044;DHT22;9654;52.302;8.120;2023-02-23T01:52:55;8.00;99.90
19044;DHT22;9654;52.302;8.120;2023-02-23T01:55:25;8.00;99.90
19044;DHT22;9654;52.302;8.120;2023-02-23T01:58:04;8.10;99.90
19044;DHT22;9654;52.302;8.120;2023-02-23T02:00:32;8.00;99.90
19044;DHT22;9654;52.302;8.120;2023-02-23T02:03:05;8.00;99.90
19044;DHT22;9654;52.302;8.120;2023-02-23T02:05:35;8.00;99.90
19044;DHT22;9654;52.302;8.120;2023-02-23T02:08:05;8.00;99.90
19044;DHT22;9654;52.302;8.120;2023-02-23T02:10:36;8.00;99.90
19044;DHT22;9654;52.302;8.120;2023-02-23T02:13:16;8.00;99.90
19044;DHT22;9654;52.302;8.120;2023-02-23T02:16:01;8.00;99.90
19044;DHT22;9654;52.302;8.120;2023-02-23T02:18:35;8.00;99.90
19044;DHT22;9654;52.302;8.120;2023-02-23T02:27:22;8.00;99.90
19044;DHT22;9654;52.302;8.120;2023-02-23T02:30:20;8.00;99.90
19044;DHT22;9654;52.302;8.120;2023-02-23T02:33:22;8.00;99.90
19044;DHT22;9654;52.302;8.120;2023-02-23T02:36:20;8.00;99.90
19044;DHT22;9654;52.302;8.120;2023-02-23T02:38:54;8.00;99.90
19044;DHT22;9654;52.302;8.120;2023-02-23T02:41:35;8.00;99.90
19044;DHT22;9654;52.302;8.120;2023-02-23T02:44:10;8.00;99.90
19044;DHT22;9654;52.302;8.120;2023-02-23T02:46:45;8.00;99.90
19044;DHT22;9654;52.302;8.120;2023-02-23T02:49:19;8.00;99.90
19044;DHT22;9654;52.302;8.120;2023-02-23T02:51:54;8.00;99.90
19044;DHT22;9654;52.302;8.120;2023-02-23T02:54:28;8.00;99.90
19044;DHT22;9654;52.302;8.120;2023-02-23T02:56:58;8.00;99.90
19044;DHT22;9654;52.302;8.120;2023-02-23T02:59:27;8.00;99.90
19044;DHT22;9654;52.302;8.120;2023-02-23T03:02:15;8.00;99.90
19044;DHT22;9654;52.302;8.120;2023-02-23T03:05:00;8.00;99.90
19044;DHT22;9654;52.302;8.120;2023-02-23T03:07:49;7.90;99.90
19044;DHT22;9654;52.302;8.120;2023-02-23T03:10:41;7.90;99.90
19044;DHT22;9654;52.302;8.120;2023-02-23T03:13:35;7.90;99.90
19044;DHT22;9654;52.302;8.120;2023-02-23T03:16:28;7.90;99.90
19044;DHT22;9654;52.302;8.120;2023-02-23T03:19:17;7.90;99.90
19044;DHT22;9654;52.302;8.120;2023-02-23T03:22:07;7.90;99.90
19044;DHT22;9654;52.302;8.120;2023-02-23T03:24:59;7.90;99.90
19044;DHT22;9654;52.302;8.120;2023-02-23T03:27:51;7.90;99.90
19044;DHT22;9654;52.302;8.120;2023-02-23T03:30:44;7.90;99.90
19044;DHT22;9654;52.302;8.120;2023-02-23T03:33:36;8.00;99.90
19044;DHT22;9654;52.302;8.120;2023-02-23T03:36:24;8.00;99.90
19044;DHT22;9654;52.302;8.120;2023-02-23T03:39:14;8.00;99.90
19044;DHT22;9654;52.302;8.120;2023-02-23T03:42:05;7.90;99.90
19044;DHT22;9654;52.302;8.120;2023-02-23T03:44:54;7.90;99.90
19044;DHT22;9654;52.302;8.120;2023-02-23T03:47:42;7.90;99.90
19044;DHT22;9654;52.302;8.120;2023-02-23T03:50:32;7.90;99.90
19044;DHT22;9654;52.302;8.120;2023-02-23T03:53:20;7.90;99.90
19044;DHT22;9654;52.302;8.120;2023-02-23T03:56:07;7.90;99.90
19044;DHT22;9654;52.302;8.120;2023-02-23T03:58:57;7.90;99.90
19044;DHT22;9654;52.302;8.120;2023-02-23T04:01:44;7.90;99.90
19044;DHT22;9654;52.302;8.120;2023-02-23T04:04:29;7.90;99.90
19044;DHT22;9654;52.302;8.120;2023-02-23T04:07:16;7.90;99.90
19044;DHT22;9654;52.302;8.120;2023-02-23T04:10:02;7.90;99.90
19044;DHT22;9654;52.302;8.120;2023-02-23T04:12:54;7.90;99.90
19044;DHT22;9654;52.302;8.120;2023-02-23T04:15:50;7.80;99.90
19044;DHT22;9654;52.302;8.120;2023-02-23T04:18:22;7.80;99.90
19044;DHT22;9654;52.302;8.120;2023-02-23T04:20:49;7.80;99.90
19044;DHT22;9654;52.302;8.120;2023-02-23T04:23:16;7.80;99.90
19044;DHT22;9654;52.302;8.120;2023-02-23T04:25:43;7.80;99.90
19044;DHT22;9654;52.302;8.120;2023-02-23T04:28:10;7.80;99.90
19044;DHT22;9654;52.302;8.120;2023-02-23T04:30:37;7.80;99.90
19044;DHT22;9654;52.302;8.120;2023-02-23T04:33:04;7.80;99.90
19044;DHT22;9654;52.302;8.120;2023-02-23T04:35:32;7.80;99.90
19044;DHT22;9654;52.302;8.120;2023-02-23T04:37:59;7.80;99.90
19044;DHT22;9654;52.302;8.120;2023-02-23T04:40:26;7.80;99.90
19044;DHT22;9654;52.302;8.120;2023-02-23T04:42:54;7.80;99.90
19044;DHT22;9654;52.302;8.120;2023-02-23T04:45:21;7.80;99.90
19044;DHT22;9654;52.302;8.120;2023-02-23T04:47:49;7.80;99.90
19044;DHT22;9654;52.302;8.120;2023-02-23T04:50:16;7.80;99.90
19044;DHT22;9654;52.302;8.120;2023-02-23T04:52:45;7.80;99.90
19044;DHT22;9654;52.302;8.120;2023-02-23T04:55:17;7.80;99.90
19044;DHT22;9654;52.302;8.120;2023-02-23T04:57:44;7.80;99.90
19044;DHT22;9654;52.302;8.120;2023-02-23T05:00:12;7.80;99.90
19044;DHT22;9654;52.302;8.120;2023-02-23T05:02:39;7.80;99.90
19044;DHT22;9654;52.302;8.120;2023-02-23T05:05:07;7.80;99.90
19044;DHT22;9654;52.302;8.120;2023-02-23T05:07:35;7.80;99.90
19044;DHT22;9654;52.302;8.120;2023-02-23T05:10:04;7.80;99.90
19044;DHT22;9654;52.302;8.120;2023-02-23T05:12:31;7.80;99.90
19044;DHT22;9654;52.302;8.120;2023-02-23T05:14:58;7.80;99.90
19044;DHT22;9654;52.302;8.120;2023-02-23T05:17:25;7.90;99.90
19044;DHT22;9654;52.302;8.120;2023-02-23T05:19:52;7.90;99.90
19044;DHT22;9654;52.302;8.120;2023-02-23T05:22:19;7.80;99.90
19044;DHT22;9654;52.302;8.120;2023-02-23T05:24:46;7.90;99.90
19044;DHT22;9654;52.302;8.120;2023-02-23T05:27:14;7.90;99.90
19044;DHT22;9654;52.302;8.120;2023-02-23T05:29:42;7.90;99.90
19044;DHT22;9654;52.302;8.120;2023-02-23T05:32:09;7.90;99.90
19044;DHT22;9654;52.302;8.120;2023-02-23T05:34:36;7.90;99.90
19044;DHT22;9654;52.302;8.120;2023-02-23T05:37:03;7.80;99.90
19044;DHT22;9654;52.302;8.120;2023-02-23T05:39:31;7.90;99.90
19044;DHT22;9654;52.302;8.120;2023-02-23T05:41:57;7.90;99.90
19044;DHT22;9654;52.302;8.120;2023-02-23T05:44:26;7.90;99.90
19044;DHT22;9654;52.302;8.120;2023-02-23T05:46:52;7.90;99.90
19044;DHT22;9654;52.302;8.120;2023-02-23T05:49:19;7.90;99.90
19044;DHT22;9654;52.302;8.120;2023-02-23T05:51:46;7.80;99.90
19044;DHT22;9654;52.302;8.120;2023-02-23T05:54:13;7.90;99.90
19044;DHT22;9654;52.302;8.120;2023-02-23T05:56:40;7.80;99.90
19044;DHT22;9654;52.302;8.120;2023-02-23T05:59:07;7.80;99.90
19044;DHT22;9654;52.302;8.120;2023-02-23T06:01:35;7.80;99.90
19044;DHT22;9654;52.302;8.120;2023-02-23T06:04:02;7.70;99.90
19044;DHT22;9654;52.302;8.120;2023-02-23T06:06:28;7.70;99.90
19044;DHT22;9654;52.302;8.120;2023-02-23T06:08:55;7.70;99.90
19044;DHT22;9654;52.302;8.120;2023-02-23T06:11:22;7.70;99.90
19044;DHT22;9654;52.302;8.120;2023-02-23T06:13:49;7.70;99.90
19044;DHT22;9654;52.302;8.120;2023-02-23T06:16:16;7.60;99.90
19044;DHT22;9654;52.302;8.120;2023-02-23T06:18:45;7.60;99.90
19044;DHT22;9654;52.302;8.120;2023-02-23T06:21:11;7.60;99.90
19044;DHT22;9654;52.302;8.120;2023-02-23T06:23:39;7.50;99.90
19044;DHT22;9654;52.302;8.120;2023-02-23T06:26:06;7.50;99.90
19044;DHT22;9654;52.302;8.120;2023-02-23T06:28:32;7.50;99.90
19044;DHT22;9654;52.302;8.120;2023-02-23T06:30:59;7.50;99.90
19044;DHT22;9654;52.302;8.120;2023-02-23T06:33:26;7.50;99.90
19044;DHT22;9654;52.302;8.120;2023-02-23T06:35:54;7.50;99.90
19044;DHT22;9654;52.302;8.120;2023-02-23T06:38:21;7.40;99.90
19044;DHT22;9654;52.302;8.120;2023-02-23T06:40:48;7.40;99.90
19044;DHT22;9654;52.302;8.120;2023-02-23T06:43:15;7.40;99.90
19044;DHT22;9654;52.302;8.120;2023-02-23T06:45:41;7.40;99.90
19044;DHT22;9654;52.302;8.120;2023-02-23T06:48:08;7.40;99.90
19044;DHT22;9654;52.302;8.120;2023-02-23T06:50:35;7.40;99.90
19044;DHT22;9654;52.302;8.120;2023-02-23T06:53:03;7.40;99.90
19044;DHT22;9654;52.302;8.120;2023-02-23T06:55:30;7.40;99.90
19044;DHT22;9654;52.302;8.120;2023-02-23T06:57:57;7.30;99.90
19044;DHT22;9654;52.302;8.120;2023-02-23T07:00:24;7.30;99.90
19044;DHT22;9654;52.302;8.120;2023-02-23T07:02:51;7.30;99.90
19044;DHT22;9654;52.302;8.120;2023-02-23T07:05:18;7.30;99.90
19044;DHT22;9654;52.302;8.120;2023-02-23T07:07:48;7.30;99.90
19044;DHT22;9654;52.302;8.120;2023-02-23T07:10:18;7.30;99.90
19044;DHT22;9654;52.302;8.120;2023-02-23T07:12:45;7.30;99.90
19044;DHT22;9654;52.302;8.120;2023-02-23T07:15:12;7.40;99.90
19044;DHT22;9654;52.302;8.120;2023-02-23T07:17:42;7.40;99.90
19044;DHT22;9654;52.302;8.120;2023-02-23T07:20:13;7.40;99.90
19044;DHT22;9654;52.302;8.120;2023-02-23T07:22:40;7.40;99.90
19044;DHT22;9654;52.302;8.120;2023-02-23T07:25:07;7.40;99.90
19044;DHT22;9654;52.302;8.120;2023-02-23T07:27:36;7.30;99.90
19044;DHT22;9654;52.302;8.120;2023-02-23T07:30:03;7.40;99.90
19044;DHT22;9654;52.302;8.120;2023-02-23T07:32:30;7.40;99.90
19044;DHT22;9654;52.302;8.120;2023-02-23T07:34:57;7.40;99.90
19044;DHT22;9654;52.302;8.120;2023-02-23T07:37:24;7.40;99.90
19044;DHT22;9654;52.302;8.120;2023-02-23T07:39:50;7.30;99.90
19044;DHT22;9654;52.302;8.120;2023-02-23T07:42:17;7.30;99.90
19044;DHT22;9654;52.302;8.120;2023-02-23T07:44:45;7.30;99.90
19044;DHT22;9654;52.302;8.120;2023-02-23T07:47:12;7.40;99.90
19044;DHT22;9654;52.302;8.120;2023-02-23T07:49:39;7.40;99.90
19044;DHT22;9654;52.302;8.120;2023-02-23T07:52:06;7.40;99.90
19044;DHT22;9654;52.302;8.120;2023-02-23T07:54:32;7.40;99.90
19044;DHT22;9654;52.302;8.120;2023-02-23T07:56:59;7.40;99.90
19044;DHT22;9654;52.302;8.120;2023-02-23T07:59:26;7.50;99.90
19044;DHT22;9654;52.302;8.120;2023-02-23T08:01:54;7.50;99.90
19044;DHT22;9654;52.302;8.120;2023-02-23T08:04:21;7.50;99.90
19044;DHT22;9654;52.302;8.120;2023-02-23T08:06:47;7.50;99.90
19044;DHT22;9654;52.302;8.120;2023-02-23T08:09:14;7.50;99.90
19044;DHT22;9654;52.302;8.120;2023-02-23T08:11:41;7.50;99.90
19044;DHT22;9654;52.302;8.120;2023-02-23T08:14:08;7.50;99.90
19044;DHT22;9654;52.302;8.120;2023-02-23T08:16:35;7.50;99.90
19044;DHT22;9654;52.302;8.120;2023-02-23T08:19:03;7.60;99.90
19044;DHT22;9654;52.302;8.120;2023-02-23T08:21:30;7.60;99.90
19044;DHT22;9654;52.302;8.120;2023-02-23T08:23:57;7.70;99.90
19044;DHT22;9654;52.302;8.120;2023-02-23T08:26:24;7.70;99.90
19044;DHT22;9654;52.302;8.120;2023-02-23T08:28:51;7.70;99.90
19044;DHT22;9654;52.302;8.120;2023-02-23T08:31:18;7.70;99.90
19044;DHT22;9654;52.302;8.120;2023-02-23T08:33:47;7.80;99.90
19044;DHT22;9654;52.302;8.120;2023-02-23T08:36:15;7.80;99.90
19044;DHT22;9654;52.302;8.120;2023-02-23T08:38:42;7.80;99.90
19044;DHT22;9654;52.302;8.120;2023-02-23T08:41:09;7.80;99.90
19044;DHT22;9654;52.302;8.120;2023-02-23T08:43:36;7.90;99.90
19044;DHT22;9654;52.302;8.120;2023-02-23T08:46:04;7.90;99.90
19044;DHT22;9654;52.302;8.120;2023-02-23T08:48:30;7.90;99.90
19044;DHT22;9654;52.302;8.120;2023-02-23T08:50:58;7.90;99.90
19044;DHT22;9654;52.302;8.120;2023-02-23T08:53:27;7.80;99.90
19044;DHT22;9654;52.302;8.120;2023-02-23T08:55:55;7.70;99.90
19044;DHT22;9654;52.302;8.120;2023-02-23T08:58:22;7.70;99.90
19044;DHT22;9654;52.302;8.120;2023-02-23T09:00:49;7.70;99.90
19044;DHT22;9654;52.302;8.120;2023-02-23T09:03:16;7.70;99.90
19044;DHT22;9654;52.302;8.120;2023-02-23T09:05:43;7.80;99.90
19044;DHT22;9654;52.302;8.120;2023-02-23T09:08:11;7.80;99.90
19044;DHT22;9654;52.302;8.120;2023-02-23T09:10:39;7.70;99.90
19044;DHT22;9654;52.302;8.120;2023-02-23T09:13:08;7.80;99.90
19044;DHT22;9654;52.302;8.120;2023-02-23T09:15:35;7.80;99.90
19044;DHT22;9654;52.302;8.120;2023-02-23T09:18:02;7.90;99.90
19044;DHT22;9654;52.302;8.120;2023-02-23T09:20:28;7.90;99.90
19044;DHT22;9654;52.302;8.120;2023-02-23T09:22:55;7.90;99.90
19044;DHT22;9654;52.302;8.120;2023-02-23T09:25:22;7.90;99.90
19044;DHT22;9654;52.302;8.120;2023-02-23T09:27:52;7.90;99.90
19044;DHT22;9654;52.302;8.120;2023-02-23T09:30:21;7.90;99.90
19044;DHT22;9654;52.302;8.120;2023-02-23T09:32:48;7.90;99.90
19044;DHT22;9654;52.302;8.120;2023-02-23T09:35:16;8.00;99.90
19044;DHT22;9654;52.302;8.120;2023-02-23T09:37:43;8.00;99.90
19044;DHT22;9654;52.302;8.120;2023-02-23T09:40:14;8.00;99.90
19044;DHT22;9654;52.302;8.120;2023-02-23T09:42:45;8.00;99.90
19044;DHT22;9654;52.302;8.120;2023-02-23T09:45:23;8.00;99.90
19044;DHT22;9654;52.302;8.120;2023-02-23T09:48:00;8.00;99.90
19044;DHT22;9654;52.302;8.120;2023-02-23T09:50:33;8.00;99.90
19044;DHT22;9654;52.302;8.120;2023-02-23T09:53:03;7.90;99.90
19044;DHT22;9654;52.302;8.120;2023-02-23T09:55:31;8.00;99.90
19044;DHT22;9654;52.302;8.120;2023-02-23T09:58:04;8.00;99.90
19044;DHT22;9654;52.302;8.120;2023-02-23T10:00:38;8.00;99.90
19044;DHT22;9654;52.302;8.120;2023-02-23T10:03:16;8.00;99.90
19044;DHT22;9654;52.302;8.120;2023-02-23T10:05:47;8.00;99.90
19044;DHT22;9654;52.302;8.120;2023-02-23T10:08:28;8.00;99.90
19044;DHT22;9654;52.302;8.120;2023-02-23T10:11:03;8.10;99.90
19044;DHT22;9654;52.302;8.120;2023-02-23T10:13:38;8.10;99.90
19044;DHT22;9654;52.302;8.120;2023-02-23T10:16:12;8.10;99.90
19044;DHT22;9654;52.302;8.120;2023-02-23T10:18:50;8.10;99.90
19044;DHT22;9654;52.302;8.120;2023-02-23T10:21:27;8.20;99.90
19044;DHT22;9654;52.302;8.120;2023-02-23T10:23:58;8.20;99.90
19044;DHT22;9654;52.302;8.120;2023-02-23T10:26:33;8.20;99.90
19044;DHT22;9654;52.302;8.120;2023-02-23T10:29:03;8.10;99.90
19044;DHT22;9654;52.302;8.120;2023-02-23T10:31:39;8.10;99.90
19044;DHT22;9654;52.302;8.120;2023-02-23T10:34:12;8.10;99.90
19044;DHT22;9654;52.302;8.120;2023-02-23T10:36:43;8.10;99.90
19044;DHT22;9654;52.302;8.120;2023-02-23T10:39:13;8.20;99.90
19044;DHT22;9654;52.302;8.120;2023-02-23T10:41:41;8.20;99.90
19044;DHT22;9654;52.302;8.120;2023-02-23T10:44:17;8.10;99.90
19044;DHT22;9654;52.302;8.120;2023-02-23T10:46:48;8.20;99.90
19044;DHT22;9654;52.302;8.120;2023-02-23T10:49:19;8.20;99.90
19044;DHT22;9654;52.302;8.120;2023-02-23T10:51:48;8.10;99.90
19044;DHT22;9654;52.302;8.120;2023-02-23T10:54:39;8.10;99.90
19044;DHT22;9654;52.302;8.120;2023-02-23T10:57:10;8.10;99.90
19044;DHT22;9654;52.302;8.120;2023-02-23T10:59:59;8.10;99.90
19044;DHT22;9654;52.302;8.120;2023-02-23T11:02:28;8.20;99.90
19044;DHT22;9654;52.302;8.120;2023-02-23T11:04:59;8.20;99.90
19044;DHT22;9654;52.302;8.120;2023-02-23T11:07:27;8.30;99.90
19044;DHT22;9654;52.302;8.120;2023-02-23T11:09:55;8.20;99.90
19044;DHT22;9654;52.302;8.120;2023-02-23T11:12:24;8.30;99.90
19044;DHT22;9654;52.302;8.120;2023-02-23T11:14:54;8.30;99.90
19044;DHT22;9654;52.302;8.120;2023-02-23T11:17:28;8.30;99.90
19044;DHT22;9654;52.302;8.120;2023-02-23T11:19:58;8.30;99.90
19044;DHT22;9654;52.302;8.120;2023-02-23T11:22:30;8.30;99.90
19044;DHT22;9654;52.302;8.120;2023-02-23T11:24:59;8.20;99.90
19044;DHT22;9654;52.302;8.120;2023-02-23T11:27:26;8.20;99.90
19044;DHT22;9654;52.302;8.120;2023-02-23T11:29:55;8.20;99.90
19044;DHT22;9654;52.302;8.120;2023-02-23T11:32:28;8.20;99.90
19044;DHT22;9654;52.302;8.120;2023-02-23T11:35:27;8.20;99.90
19044;DHT22;9654;52.302;8.120;2023-02-23T11:37:54;8.30;99.90
19044;DHT22;9654;52.302;8.120;2023-02-23T11:40:23;8.40;99.90
19044;DHT22;9654;52.302;8.120;2023-02-23T11:42:52;8.50;99.90
19044;DHT22;9654;52.302;8.120;2023-02-23T11:45:21;8.70;99.90
19044;DHT22;9654;52.302;8.120;2023-02-23T11:47:52;8.70;99.90
19044;DHT22;9654;52.302;8.120;2023-02-23T11:50:22;8.70;99.90
19044;DHT22;9654;52.302;8.120;2023-02-23T11:52:54;8.70;99.90
19044;DHT22;9654;52.302;8.120;2023-02-23T11:55:22;8.60;99.90
19044;DHT22;9654;52.302;8.120;2023-02-23T11:57:50;8.60;99.90
19044;DHT22;9654;52.302;8.120;2023-02-23T12:00:23;8.60;99.90
19044;DHT22;9654;52.302;8.120;2023-02-23T12:02:54;8.60;99.90
19044;DHT22;9654;52.302;8.120;2023-02-23T12:05:24;8.60;99.90
19044;DHT22;9654;52.302;8.120;2023-02-23T12:07:57;8.60;99.90
19044;DHT22;9654;52.302;8.120;2023-02-23T12:10:28;8.60;99.90
19044;DHT22;9654;52.302;8.120;2023-02-23T12:13:01;8.60;99.90
19044;DHT22;9654;52.302;8.120;2023-02-23T12:15:39;8.60;99.90
19044;DHT22;9654;52.302;8.120;2023-02-23T12:18:18;8.60;99.90
19044;DHT22;9654;52.302;8.120;2023-02-23T12:20:50;8.60;99.90
19044;DHT22;9654;52.302;8.120;2023-02-23T12:23:23;8.60;99.90
19044;DHT22;9654;52.302;8.120;2023-02-23T12:25:53;8.60;99.90
19044;DHT22;9654;52.302;8.120;2023-02-23T12:28:26;8.60;99.90
19044;DHT22;9654;52.302;8.120;2023-02-23T12:30:59;8.60;99.90
19044;DHT22;9654;52.302;8.120;2023-02-23T12:33:34;8.50;99.90
19044;DHT22;9654;52.302;8.120;2023-02-23T12:36:10;8.50;99.90
19044;DHT22;9654;52.302;8.120;2023-02-23T12:38:47;8.60;99.90
19044;DHT22;9654;52.302;8.120;2023-02-23T12:41:20;8.60;99.90
19044;DHT22;9654;52.302;8.120;2023-02-23T12:43:54;8.60;99.90
19044;DHT22;9654;52.302;8.120;2023-02-23T12:46:25;8.50;99.90
19044;DHT22;9654;52.302;8.120;2023-02-23T12:49:03;8.40;99.90
19044;DHT22;9654;52.302;8.120;2023-02-23T12:51:34;8.40;99.90
19044;DHT22;9654;52.302;8.120;2023-02-23T12:54:03;8.40;99.90
19044;DHT22;9654;52.302;8.120;2023-02-23T12:56:35;8.30;99.90
19044;DHT22;9654;52.302;8.120;2023-02-23T12:59:16;8.20;99.90
19044;DHT22;9654;52.302;8.120;2023-02-23T13:01:50;8.20;99.90
19044;DHT22;9654;52.302;8.120;2023-02-23T13:07:17;8.30;99.90
19044;DHT22;9654;52.302;8.120;2023-02-23T13:09:54;8.20;99.90
19044;DHT22;9654;52.302;8.120;2023-02-23T13:12:42;8.20;99.90
19044;DHT22;9654;52.302;8.120;2023-02-23T13:15:23;8.20;99.90
19044;DHT22;9654;52.302;8.120;2023-02-23T13:17:56;8.20;99.90
19044;DHT22;9654;52.302;8.120;2023-02-23T13:20:31;8.10;99.90
19044;DHT22;9654;52.302;8.120;2023-02-23T13:23:07;8.10;99.90
19044;DHT22;9654;52.302;8.120;2023-02-23T13:25:40;8.10;99.90
19044;DHT22;9654;52.302;8.120;2023-02-23T13:28:15;8.10;99.90
19044;DHT22;9654;52.302;8.120;2023-02-23T13:30:43;8.10;99.90
19044;DHT22;9654;52.302;8.120;2023-02-23T13:33:23;8.10;99.90
19044;DHT22;9654;52.302;8.120;2023-02-23T13:35:51;8.20;99.90
19044;DHT22;9654;52.302;8.120;2023-02-23T13:38:25;8.20;99.90
19044;DHT22;9654;52.302;8.120;2023-02-23T13:41:03;8.20;99.90
19044;DHT22;9654;52.302;8.120;2023-02-23T13:43:35;8.10;99.90
19044;DHT22;9654;52.302;8.120;2023-02-23T13:46:14;8.10;99.90
19044;DHT22;9654;52.302;8.120;2023-02-23T13:48:50;8.10;99.90
19044;DHT22;9654;52.302;8.120;2023-02-23T13:51:27;8.00;99.90
19044;DHT22;9654;52.302;8.120;2023-02-23T13:54:00;8.00;99.90
19044;DHT22;9654;52.302;8.120;2023-02-23T13:56:28;7.90;99.90
19044;DHT22;9654;52.302;8.120;2023-02-23T13:58:59;7.90;99.90
19044;DHT22;9654;52.302;8.120;2023-02-23T14:01:29;7.90;99.90
19044;DHT22;9654;52.302;8.120;2023-02-23T14:03:59;7.80;99.90
19044;DHT22;9654;52.302;8.120;2023-02-23T14:06:30;7.90;99.90
19044;DHT22;9654;52.302;8.120;2023-02-23T14:08:59;7.80;99.90
19044;DHT22;9654;52.302;8.120;2023-02-23T14:11:45;7.80;99.90
19044;DHT22;9654;52.302;8.120;2023-02-23T14:14:15;7.70;99.90
19044;DHT22;9654;52.302;8.120;2023-02-23T14:17:38;7.70;99.90
19044;DHT22;9654;52.302;8.120;2023-02-23T14:20:13;7.70;99.90
19044;DHT22;9654;52.302;8.120;2023-02-23T14:25:50;7.70;99.90
19044;DHT22;9654;52.302;8.120;2023-02-23T14:28:25;7.60;99.90
19044;DHT22;9654;52.302;8.120;2023-02-23T14:31:01;7.60;99.90
19044;DHT22;9654;52.302;8.120;2023-02-23T14:33:36;7.60;99.90
19044;DHT22;9654;52.302;8.120;2023-02-23T14:36:34;7.50;99.90
19044;DHT22;9654;52.302;8.120;2023-02-23T14:39:06;7.50;99.90
19044;DHT22;9654;52.302;8.120;2023-02-23T14:41:40;7.50;99.90
19044;DHT22;9654;52.302;8.120;2023-02-23T14:44:13;7.50;99.90
19044;DHT22;9654;52.302;8.120;2023-02-23T14:46:48;7.50;99.90
19044;DHT22;9654;52.302;8.120;2023-02-23T14:49:18;7.50;99.90
19044;DHT22;9654;52.302;8.120;2023-02-23T14:51:47;7.50;99.90
19044;DHT22;9654;52.302;8.120;2023-02-23T14:54:23;7.50;99.90
19044;DHT22;9654;52.302;8.120;2023-02-23T14:56:54;7.50;99.90
19044;DHT22;9654;52.302;8.120;2023-02-23T14:59:24;7.50;99.90
19044;DHT22;9654;52.302;8.120;2023-02-23T15:01:54;7.50;99.90
19044;DHT22;9654;52.302;8.120;2023-02-23T15:04:23;7.60;99.90
19044;DHT22;9654;52.302;8.120;2023-02-23T15:06:54;7.50;99.90
19044;DHT22;9654;52.302;8.120;2023-02-23T15:09:28;7.50;99.90
19044;DHT22;9654;52.302;8.120;2023-02-23T15:11:59;7.50;99.90
19044;DHT22;9654;52.302;8.120;2023-02-23T15:14:30;7.50;99.90
19044;DHT22;9654;52.302;8.120;2023-02-23T15:16:58;7.50;99.90
19044;DHT22;9654;52.302;8.120;2023-02-23T15:19:27;7.50;99.90
19044;DHT22;9654;52.302;8.120;2023-02-23T15:21:57;7.50;99.90
19044;DHT22;9654;52.302;8.120;2023-02-23T15:24:26;7.40;99.90
19044;DHT22;9654;52.302;8.120;2023-02-23T15:26:54;7.40;99.90
19044;DHT22;9654;52.302;8.120;2023-02-23T15:29:24;7.40;99.90
19044;DHT22;9654;52.302;8.120;2023-02-23T15:31:53;7.40;99.90
19044;DHT22;9654;52.302;8.120;2023-02-23T15:34:24;7.40;99.90
19044;DHT22;9654;52.302;8.120;2023-02-23T15:36:53;7.40;99.90
19044;DHT22;9654;52.302;8.120;2023-02-23T15:39:29;7.40;99.90
19044;DHT22;9654;52.302;8.120;2023-02-23T15:42:01;7.40;99.90
19044;DHT22;9654;52.302;8.120;2023-02-23T15:44:29;7.50;99.90
19044;DHT22;9654;52.302;8.120;2023-02-23T15:46:58;7.40;99.90
19044;DHT22;9654;52.302;8.120;2023-02-23T15:49:28;7.40;99.90
19044;DHT22;9654;52.302;8.120;2023-02-23T15:51:59;7.40;99.90
19044;DHT22;9654;52.302;8.120;2023-02-23T15:54:29;7.40;99.90
19044;DHT22;9654;52.302;8.120;2023-02-23T15:56:58;7.30;99.90
19044;DHT22;9654;52.302;8.120;2023-02-23T15:59:30;7.30;99.90
19044;DHT22;9654;52.302;8.120;2023-02-23T16:02:00;7.30;99.90
19044;DHT22;9654;52.302;8.120;2023-02-23T16:04:30;7.30;99.90
19044;DHT22;9654;52.302;8.120;2023-02-23T16:07:07;7.30;99.90
19044;DHT22;9654;52.302;8.120;2023-02-23T16:09:37;7.30;99.90
19044;DHT22;9654;52.302;8.120;2023-02-23T16:12:09;7.30;99.90
19044;DHT22;9654;52.302;8.120;2023-02-23T16:14:44;7.30;99.90
19044;DHT22;9654;52.302;8.120;2023-02-23T16:17:21;7.30;99.90
19044;DHT22;9654;52.302;8.120;2023-02-23T16:19:50;7.30;99.90
19044;DHT22;9654;52.302;8.120;2023-02-23T16:22:20;7.30;99.90
19044;DHT22;9654;52.302;8.120;2023-02-23T16:24:55;7.20;99.90
19044;DHT22;9654;52.302;8.120;2023-02-23T16:27:24;7.20;99.90
19044;DHT22;9654;52.302;8.120;2023-02-23T16:29:58;7.20;99.90
19044;DHT22;9654;52.302;8.120;2023-02-23T16:32:33;7.20;99.90
19044;DHT22;9654;52.302;8.120;2023-02-23T16:35:06;7.20;99.90
19044;DHT22;9654;52.302;8.120;2023-02-23T16:37:56;7.20;99.90
19044;DHT22;9654;52.302;8.120;2023-02-23T16:40:23;7.20;99.90
19044;DHT22;9654;52.302;8.120;2023-02-23T16:42:50;7.20;99.90
19044;DHT22;9654;52.302;8.120;2023-02-23T16:45:18;7.20;99.90